createdAt,value
2019-04-30T00:00:58.312Z,1004.69
2019-04-30T00:01:58.943Z,1004.72
2019-04-30T00:02:58.308Z,1004.68
2019-04-30T00:03:59.412Z,1004.74
2019-04-30T00:04:58.267Z,1004.67
2019-04-30T00:05:58.256Z,1004.70
2019-04-30T00:06:59.010Z,1004.64
2019-04-30T00:07:58.753Z,1004.70
2019-04-30T00:08:58.221Z,1004.64
2019-04-30T00:09:58.213Z,1004.62
2019-04-30T00:10:58.200Z,1004.61
2019-04-30T00:12:01.259Z,1004.66
2019-04-30T00:12:58.174Z,1004.61
2019-04-30T00:13:58.928Z,1004.62
2019-04-30T00:14:58.156Z,1004.61
2019-04-30T00:16:01.488Z,1004.61
2019-04-30T00:16:58.132Z,1004.62
2019-04-30T00:18:01.781Z,1004.60
2019-04-30T00:19:00.765Z,1004.55
2019-04-30T00:19:59.708Z,1004.56
2019-04-30T00:20:58.091Z,1004.54
2019-04-30T00:22:00.472Z,1004.56
2019-04-30T00:22:58.067Z,1004.53
2019-04-30T00:24:00.699Z,1004.54
2019-04-30T00:24:59.048Z,1004.52
2019-04-30T00:26:05.187Z,1004.51
2019-04-30T00:26:59.019Z,1004.53
2019-04-30T00:28:00.353Z,1004.49
2019-04-30T00:28:59.025Z,1004.49
2019-04-30T00:30:00.416Z,1004.53
2019-04-30T00:30:58.974Z,1004.50
2019-04-30T00:32:04.309Z,1004.44
2019-04-30T00:32:58.954Z,1004.43
2019-04-30T00:34:01.354Z,1004.42
2019-04-30T00:34:57.946Z,1004.44
2019-04-30T00:35:58.184Z,1004.37
2019-04-30T00:36:57.909Z,1004.38
2019-04-30T00:38:00.182Z,1004.42
2019-04-30T00:38:57.890Z,1004.44
2019-04-30T00:39:57.890Z,1004.41
2019-04-30T00:41:01.935Z,1004.49
2019-04-30T00:41:58.850Z,1004.43
2019-04-30T00:43:00.163Z,1004.44
2019-04-30T00:43:58.830Z,1004.42
2019-04-30T00:44:59.670Z,1004.40
2019-04-30T00:45:58.804Z,1004.50
2019-04-30T00:47:02.869Z,1004.44
2019-04-30T00:47:58.782Z,1004.44
2019-04-30T00:49:08.729Z,1004.39
2019-04-30T00:50:00.257Z,1004.42
2019-04-30T00:50:57.749Z,1004.43
2019-04-30T00:51:58.345Z,1004.42
2019-04-30T00:52:57.902Z,1004.45
2019-04-30T00:53:57.717Z,1004.45
2019-04-30T00:55:00.453Z,1004.48
2019-04-30T00:55:58.711Z,1004.40
2019-04-30T00:57:03.603Z,1004.45
2019-04-30T00:57:58.669Z,1004.43
2019-04-30T00:59:02.131Z,1004.43
2019-04-30T00:59:58.648Z,1004.43
2019-04-30T01:00:59.710Z,1004.46
2019-04-30T01:01:58.627Z,1004.40
2019-04-30T01:03:00.943Z,1004.46
2019-04-30T01:03:58.603Z,1004.50
2019-04-30T01:05:04.835Z,1004.50
2019-04-30T01:05:58.613Z,1004.50
2019-04-30T01:07:00.303Z,1004.51
2019-04-30T01:07:58.562Z,1004.48
2019-04-30T01:08:58.308Z,1004.49
2019-04-30T01:09:58.535Z,1004.45
2019-04-30T01:10:59.746Z,1004.47
2019-04-30T01:11:58.535Z,1004.44
2019-04-30T01:12:59.785Z,1004.45
2019-04-30T01:13:59.087Z,1004.42
2019-04-30T01:14:59.036Z,1004.46
2019-04-30T01:15:58.764Z,1004.44
2019-04-30T01:16:59.304Z,1004.38
2019-04-30T01:17:59.286Z,1004.36
2019-04-30T01:18:58.621Z,1004.42
2019-04-30T01:19:59.146Z,1004.43
2019-04-30T01:20:58.705Z,1004.40
2019-04-30T01:21:59.373Z,1004.36
2019-04-30T01:22:58.649Z,1004.43
2019-04-30T01:23:59.037Z,1004.40
2019-04-30T01:25:01.343Z,1004.43
2019-04-30T01:25:58.595Z,1004.44
2019-04-30T01:27:02.093Z,1004.38
2019-04-30T01:27:58.613Z,1004.40
2019-04-30T01:29:00.418Z,1004.41
2019-04-30T01:29:58.503Z,1004.38
2019-04-30T01:30:58.829Z,1004.35
2019-04-30T01:31:58.609Z,1004.32
2019-04-30T01:32:58.816Z,1004.34
2019-04-30T01:33:58.967Z,1004.32
2019-04-30T01:34:58.893Z,1004.31
2019-04-30T01:35:57.242Z,1004.28
2019-04-30T01:36:58.908Z,1004.31
2019-04-30T01:37:57.235Z,1004.28
2019-04-30T01:38:57.207Z,1004.31
2019-04-30T01:39:58.777Z,1004.28
2019-04-30T01:40:57.186Z,1004.28
2019-04-30T01:41:58.681Z,1004.31
2019-04-30T01:42:57.191Z,1004.32
2019-04-30T01:43:58.491Z,1004.29
2019-04-30T01:44:58.853Z,1004.32
2019-04-30T01:46:03.244Z,1004.32
2019-04-30T01:46:58.827Z,1004.31
2019-04-30T01:48:00.711Z,1004.32
2019-04-30T01:48:58.845Z,1004.36
2019-04-30T01:50:01.003Z,1004.32
2019-04-30T01:50:58.670Z,1004.32
2019-04-30T01:51:58.490Z,1004.35
2019-04-30T01:52:58.694Z,1004.32
2019-04-30T01:53:57.070Z,1004.31
2019-04-30T01:54:58.650Z,1004.34
2019-04-30T01:55:57.014Z,1004.25
2019-04-30T01:56:57.004Z,1004.28
2019-04-30T01:57:59.067Z,1004.29
2019-04-30T01:58:56.983Z,1004.28
2019-04-30T01:59:58.289Z,1004.32
2019-04-30T02:00:56.967Z,1004.31
2019-04-30T02:01:58.546Z,1004.27
2019-04-30T02:02:56.935Z,1004.31
2019-04-30T02:03:58.532Z,1004.33
2019-04-30T02:04:59.028Z,1004.34
2019-04-30T02:05:56.901Z,1004.38
2019-04-30T02:06:56.894Z,1004.39
2019-04-30T02:07:58.542Z,1004.40
2019-04-30T02:08:56.869Z,1004.41
2019-04-30T02:09:58.358Z,1004.40
2019-04-30T02:10:56.845Z,1004.43
2019-04-30T02:11:56.834Z,1004.48
2019-04-30T02:12:56.823Z,1004.46
2019-04-30T02:13:56.810Z,1004.46
2019-04-30T02:14:56.801Z,1004.45
2019-04-30T02:15:59.082Z,1004.44
2019-04-30T02:16:56.782Z,1004.49
2019-04-30T02:17:58.293Z,1004.54
2019-04-30T02:18:56.758Z,1004.49
2019-04-30T02:19:57.399Z,1004.49
2019-04-30T02:20:56.750Z,1004.52
2019-04-30T02:21:58.490Z,1004.45
2019-04-30T02:22:58.709Z,1004.47
2019-04-30T02:23:56.702Z,1004.50
2019-04-30T02:24:58.553Z,1004.46
2019-04-30T02:25:58.830Z,1004.45
2019-04-30T02:26:56.664Z,1004.48
2019-04-30T02:27:56.652Z,1004.49
2019-04-30T02:28:56.643Z,1004.52
2019-04-30T02:29:56.636Z,1004.53
2019-04-30T02:30:56.652Z,1004.52
2019-04-30T02:31:56.610Z,1004.53
2019-04-30T02:33:00.102Z,1004.58
2019-04-30T02:33:56.595Z,1004.52
2019-04-30T02:34:56.580Z,1004.49
2019-04-30T02:35:56.592Z,1004.51
2019-04-30T02:36:56.555Z,1004.55
2019-04-30T02:37:56.541Z,1004.60
2019-04-30T02:39:02.252Z,1004.58
2019-04-30T02:40:00.564Z,1004.54
2019-04-30T02:40:56.510Z,1004.53
2019-04-30T02:41:56.511Z,1004.51
2019-04-30T02:42:58.969Z,1004.51
2019-04-30T02:43:59.821Z,1004.50
2019-04-30T02:44:56.462Z,1004.55
2019-04-30T02:45:56.452Z,1004.52
2019-04-30T02:46:56.454Z,1004.55
2019-04-30T02:47:56.442Z,1004.53
2019-04-30T02:48:59.469Z,1004.50
2019-04-30T02:50:11.473Z,1004.52
2019-04-30T02:51:00.048Z,1004.48
2019-04-30T02:51:56.404Z,1004.52
2019-04-30T02:52:56.372Z,1004.46
2019-04-30T02:53:56.363Z,1004.53
2019-04-30T02:54:56.348Z,1004.54
2019-04-30T02:55:56.340Z,1004.55
2019-04-30T02:56:56.347Z,1004.54
2019-04-30T02:57:56.329Z,1004.56
2019-04-30T02:58:56.304Z,1004.55
2019-04-30T02:59:56.296Z,1004.53
2019-04-30T03:00:56.282Z,1004.58
2019-04-30T03:01:56.299Z,1004.59
2019-04-30T03:02:56.260Z,1004.59
2019-04-30T03:03:56.248Z,1004.55
2019-04-30T03:04:56.242Z,1004.56
2019-04-30T03:05:56.224Z,1004.54
2019-04-30T03:06:56.214Z,1004.52
2019-04-30T03:07:56.224Z,1004.54
2019-04-30T03:08:56.191Z,1004.52
2019-04-30T03:09:56.181Z,1004.54
2019-04-30T03:10:56.168Z,1004.53
2019-04-30T03:11:56.156Z,1004.48
2019-04-30T03:12:56.164Z,1004.51
2019-04-30T03:13:56.134Z,1004.53
2019-04-30T03:14:56.126Z,1004.52
2019-04-30T03:15:56.114Z,1004.53
2019-04-30T03:16:56.104Z,1004.57
2019-04-30T03:17:56.111Z,1004.53
2019-04-30T03:18:56.079Z,1004.52
2019-04-30T03:19:56.066Z,1004.55
2019-04-30T03:20:56.061Z,1004.57
2019-04-30T03:21:56.048Z,1004.59
2019-04-30T03:22:56.064Z,1004.63
2019-04-30T03:23:56.022Z,1004.63
2019-04-30T03:24:56.011Z,1004.61
2019-04-30T03:25:55.999Z,1004.62
2019-04-30T03:26:56.007Z,1004.60
2019-04-30T03:27:55.978Z,1004.57
2019-04-30T03:28:55.980Z,1004.63
2019-04-30T03:29:55.956Z,1004.66
2019-04-30T03:30:57.496Z,1004.54
2019-04-30T03:31:55.933Z,1004.61
2019-04-30T03:32:57.150Z,1004.61
2019-04-30T03:33:55.929Z,1004.62
2019-04-30T03:34:55.899Z,1004.60
2019-04-30T03:35:55.890Z,1004.62
2019-04-30T03:36:55.880Z,1004.59
2019-04-30T03:37:55.865Z,1004.62
2019-04-30T03:38:55.868Z,1004.63
2019-04-30T03:39:55.849Z,1004.64
2019-04-30T03:40:55.828Z,1004.61
2019-04-30T03:41:55.819Z,1004.62
2019-04-30T03:42:55.807Z,1004.60
2019-04-30T03:43:55.826Z,1004.57
2019-04-30T03:44:55.788Z,1004.59
2019-04-30T03:45:55.773Z,1004.56
2019-04-30T03:46:55.761Z,1004.61
2019-04-30T03:47:55.752Z,1004.63
2019-04-30T03:48:55.739Z,1004.65
2019-04-30T03:49:55.759Z,1004.61
2019-04-30T03:50:56.919Z,1004.64
2019-04-30T03:51:55.706Z,1004.69
2019-04-30T03:52:55.695Z,1004.67
2019-04-30T03:53:55.697Z,1004.74
2019-04-30T03:54:55.673Z,1004.73
2019-04-30T03:55:55.689Z,1004.75
2019-04-30T03:56:55.660Z,1004.76
2019-04-30T03:57:55.638Z,1004.78
2019-04-30T03:58:55.628Z,1004.77
2019-04-30T03:59:55.617Z,1004.80
2019-04-30T04:00:55.605Z,1004.79
2019-04-30T04:01:55.610Z,1004.82
2019-04-30T04:02:55.583Z,1004.85
2019-04-30T04:03:55.581Z,1004.83
2019-04-30T04:04:55.559Z,1004.81
2019-04-30T04:05:55.549Z,1004.82
2019-04-30T04:06:55.555Z,1004.81
2019-04-30T04:07:55.526Z,1004.82
2019-04-30T04:08:55.514Z,1004.84
2019-04-30T04:09:55.503Z,1004.83
2019-04-30T04:10:55.492Z,1004.84
2019-04-30T04:11:55.496Z,1004.83
2019-04-30T04:12:55.469Z,1004.84
2019-04-30T04:13:55.462Z,1004.89
2019-04-30T04:14:55.449Z,1004.86
2019-04-30T04:15:55.435Z,1004.88
2019-04-30T04:16:55.452Z,1004.89
2019-04-30T04:17:55.413Z,1004.96
2019-04-30T04:18:55.402Z,1004.92
2019-04-30T04:19:55.390Z,1004.94
2019-04-30T04:21:08.703Z,1004.93
2019-04-30T04:21:56.399Z,1004.94
2019-04-30T04:22:55.356Z,1004.99
2019-04-30T04:23:55.349Z,1004.98
2019-04-30T04:24:55.336Z,1005.01
2019-04-30T04:25:55.321Z,1005.08
2019-04-30T04:26:55.311Z,1004.98
2019-04-30T04:27:55.327Z,1005.01
2019-04-30T04:28:55.290Z,1005.07
2019-04-30T04:29:55.276Z,1005.04
2019-04-30T04:30:55.269Z,1004.99
2019-04-30T04:31:55.253Z,1005.00
2019-04-30T04:32:55.243Z,1005.03
2019-04-30T04:33:55.261Z,1004.95
2019-04-30T04:34:55.224Z,1004.99
2019-04-30T04:35:55.211Z,1004.98
2019-04-30T04:36:55.199Z,1005.03
2019-04-30T04:37:55.187Z,1005.02
2019-04-30T04:38:55.176Z,1005.00
2019-04-30T04:39:55.191Z,1005.01
2019-04-30T04:40:55.159Z,1005.04
2019-04-30T04:41:55.142Z,1005.04
2019-04-30T04:42:55.130Z,1005.07
2019-04-30T04:43:55.121Z,1005.06
2019-04-30T04:44:55.154Z,1004.97
2019-04-30T04:45:55.097Z,1005.06
2019-04-30T04:46:55.084Z,1005.01
2019-04-30T04:47:55.074Z,1005.06
2019-04-30T04:48:55.064Z,1005.03
2019-04-30T04:49:55.052Z,1005.08
2019-04-30T04:50:55.067Z,1005.06
2019-04-30T04:51:55.028Z,1005.04
2019-04-30T04:52:55.025Z,1005.08
2019-04-30T04:53:55.010Z,1005.11
2019-04-30T04:54:55.018Z,1005.05
2019-04-30T04:55:54.984Z,1005.05
2019-04-30T04:57:11.150Z,1005.06
2019-04-30T04:57:55.961Z,1005.09
2019-04-30T04:58:54.950Z,1005.09
2019-04-30T04:59:54.942Z,1005.15
2019-04-30T05:00:54.955Z,1005.12
2019-04-30T05:01:54.916Z,1005.12
2019-04-30T05:02:54.907Z,1005.13
2019-04-30T05:03:54.893Z,1005.08
2019-04-30T05:04:54.882Z,1005.15
2019-04-30T05:05:54.877Z,1005.18
2019-04-30T05:06:54.886Z,1005.17
2019-04-30T05:07:54.847Z,1005.18
2019-04-30T05:08:54.836Z,1005.19
2019-04-30T05:09:54.826Z,1005.16
2019-04-30T05:10:54.822Z,1005.15
2019-04-30T05:11:54.818Z,1005.16
2019-04-30T05:12:54.791Z,1005.17
2019-04-30T05:13:54.780Z,1005.18
2019-04-30T05:14:54.770Z,1005.20
2019-04-30T05:15:54.756Z,1005.24
2019-04-30T05:16:54.763Z,1005.19
2019-04-30T05:17:54.735Z,1005.20
2019-04-30T05:18:54.723Z,1005.21
2019-04-30T05:19:54.713Z,1005.19
2019-04-30T05:20:54.700Z,1005.24
2019-04-30T05:21:54.717Z,1005.25
2019-04-30T05:22:54.682Z,1005.25
2019-04-30T05:23:54.672Z,1005.27
2019-04-30T05:24:54.657Z,1005.23
2019-04-30T05:25:54.644Z,1005.22
2019-04-30T05:26:54.636Z,1005.23
2019-04-30T05:27:54.637Z,1005.21
2019-04-30T05:28:54.612Z,1005.25
2019-04-30T05:29:54.604Z,1005.22
2019-04-30T05:30:54.604Z,1005.23
2019-04-30T05:31:54.577Z,1005.21
2019-04-30T05:32:54.581Z,1005.22
2019-04-30T05:33:54.556Z,1005.25
2019-04-30T05:34:54.544Z,1005.24
2019-04-30T05:35:54.532Z,1005.29
2019-04-30T05:36:54.521Z,1005.29
2019-04-30T05:37:54.538Z,1005.33
2019-04-30T05:38:54.499Z,1005.33
2019-04-30T05:39:54.486Z,1005.31
2019-04-30T05:40:54.476Z,1005.33
2019-04-30T05:41:54.476Z,1005.32
2019-04-30T05:42:54.453Z,1005.27
2019-04-30T05:43:54.462Z,1005.33
2019-04-30T05:44:54.430Z,1005.35
2019-04-30T05:45:54.424Z,1005.37
2019-04-30T05:46:54.407Z,1005.35
2019-04-30T05:47:54.397Z,1005.43
2019-04-30T05:48:54.402Z,1005.37
2019-04-30T05:49:54.382Z,1005.35
2019-04-30T05:50:56.214Z,1005.35
2019-04-30T05:51:55.887Z,1005.37
2019-04-30T05:52:54.341Z,1005.40
2019-04-30T05:53:54.350Z,1005.37
2019-04-30T05:54:54.319Z,1005.30
2019-04-30T05:55:54.309Z,1005.37
2019-04-30T05:56:54.295Z,1005.34
2019-04-30T05:57:56.352Z,1005.37
2019-04-30T05:58:54.301Z,1005.38
2019-04-30T05:59:54.262Z,1005.34
2019-04-30T06:00:54.251Z,1005.39
2019-04-30T06:01:54.247Z,1005.38
2019-04-30T06:02:54.229Z,1005.39
2019-04-30T06:03:54.219Z,1005.44
2019-04-30T06:04:54.221Z,1005.42
2019-04-30T06:05:54.193Z,1005.46
2019-04-30T06:06:54.181Z,1005.39
2019-04-30T06:07:55.473Z,1005.37
2019-04-30T06:09:03.989Z,1005.38
2019-04-30T06:09:55.166Z,1005.34
2019-04-30T06:10:54.138Z,1005.38
2019-04-30T06:11:54.125Z,1005.40
2019-04-30T06:12:54.113Z,1005.38
2019-04-30T06:13:54.104Z,1005.39
2019-04-30T06:14:54.121Z,1005.40
2019-04-30T06:15:54.081Z,1005.42
2019-04-30T06:16:54.071Z,1005.42
2019-04-30T06:18:00.907Z,1005.42
2019-04-30T06:18:55.046Z,1005.42
2019-04-30T06:19:54.035Z,1005.39
2019-04-30T06:20:54.041Z,1005.42
2019-04-30T06:22:05.077Z,1005.42
2019-04-30T06:22:55.001Z,1005.41
2019-04-30T06:23:53.992Z,1005.42
2019-04-30T06:24:53.980Z,1005.41
2019-04-30T06:25:59.585Z,1005.42
2019-04-30T06:26:54.958Z,1005.42
2019-04-30T06:27:53.945Z,1005.40
2019-04-30T06:28:53.935Z,1005.37
2019-04-30T06:29:53.925Z,1005.41
2019-04-30T06:30:53.931Z,1005.41
2019-04-30T06:31:53.903Z,1005.50
2019-04-30T06:32:53.893Z,1005.55
2019-04-30T06:33:53.880Z,1005.52
2019-04-30T06:34:53.868Z,1005.55
2019-04-30T06:35:53.876Z,1005.52
2019-04-30T06:36:55.651Z,1005.53
2019-04-30T06:37:53.839Z,1005.55
2019-04-30T06:38:53.822Z,1005.57
2019-04-30T06:39:53.812Z,1005.59
2019-04-30T06:40:53.818Z,1005.56
2019-04-30T06:42:04.129Z,1005.56
2019-04-30T06:42:54.776Z,1005.51
2019-04-30T06:43:53.766Z,1005.56
2019-04-30T06:44:53.754Z,1005.57
2019-04-30T06:45:53.763Z,1005.50
2019-04-30T06:46:53.732Z,1005.57
2019-04-30T06:47:53.720Z,1005.53
2019-04-30T06:48:53.711Z,1005.52
2019-04-30T06:49:53.698Z,1005.51
2019-04-30T06:50:53.718Z,1005.55
2019-04-30T06:51:53.675Z,1005.53
2019-04-30T06:52:56.822Z,1005.50
2019-04-30T06:53:53.654Z,1005.53
2019-04-30T06:54:53.642Z,1005.51
2019-04-30T06:55:53.630Z,1005.47
2019-04-30T06:56:53.636Z,1005.51
2019-04-30T06:57:53.607Z,1005.44
2019-04-30T06:58:53.595Z,1005.49
2019-04-30T06:59:53.584Z,1005.48
2019-04-30T07:00:53.574Z,1005.41
2019-04-30T07:01:53.580Z,1005.40
2019-04-30T07:02:53.550Z,1005.45
2019-04-30T07:03:53.538Z,1005.45
2019-04-30T07:04:53.534Z,1005.42
2019-04-30T07:05:53.517Z,1005.42
2019-04-30T07:06:53.521Z,1005.43
2019-04-30T07:08:02.234Z,1005.44
2019-04-30T07:08:55.881Z,1005.50
2019-04-30T07:09:58.317Z,1005.47
2019-04-30T07:10:59.942Z,1005.44
2019-04-30T07:11:54.490Z,1005.40
2019-04-30T07:12:53.437Z,1005.44
2019-04-30T07:13:53.425Z,1005.46
2019-04-30T07:14:53.415Z,1005.45
2019-04-30T07:15:53.405Z,1005.47
2019-04-30T07:16:53.412Z,1005.48
2019-04-30T07:17:53.382Z,1005.42
2019-04-30T07:18:53.378Z,1005.48
2019-04-30T07:19:56.716Z,1005.47
2019-04-30T07:20:53.349Z,1005.47
2019-04-30T07:21:53.363Z,1005.49
2019-04-30T07:23:00.296Z,1005.56
2019-04-30T07:23:54.313Z,1005.49
2019-04-30T07:24:53.304Z,1005.51
2019-04-30T07:25:53.293Z,1005.53
2019-04-30T07:26:54.719Z,1005.47
2019-04-30T07:27:54.286Z,1005.46
2019-04-30T07:29:54.245Z,1005.56
2019-04-30T07:31:54.222Z,1005.55
2019-04-30T07:32:53.233Z,1005.55
2019-04-30T07:33:54.059Z,1005.59
2019-04-30T07:34:53.190Z,1005.62
2019-04-30T07:35:53.179Z,1005.60
2019-04-30T07:37:10.786Z,1005.58
2019-04-30T07:37:54.477Z,1005.55
2019-04-30T07:38:56.672Z,1005.62
2019-04-30T07:39:53.134Z,1005.61
2019-04-30T07:40:53.126Z,1005.62
2019-04-30T07:41:53.115Z,1005.58
2019-04-30T07:42:53.099Z,1005.61
2019-04-30T07:43:53.614Z,1005.64
2019-04-30T07:44:53.082Z,1005.63
2019-04-30T07:45:53.065Z,1005.59
2019-04-30T07:46:53.055Z,1005.60
2019-04-30T07:47:53.043Z,1005.58
2019-04-30T07:48:53.063Z,1005.60
2019-04-30T07:49:55.907Z,1005.60
2019-04-30T07:50:53.010Z,1005.65
2019-04-30T07:51:53.493Z,1005.67
2019-04-30T07:53:02.534Z,1005.60
2019-04-30T07:53:54.005Z,1005.65
2019-04-30T07:54:52.965Z,1005.61
2019-04-30T07:55:52.966Z,1005.61
2019-04-30T07:56:52.965Z,1005.56
2019-04-30T07:57:52.932Z,1005.61
2019-04-30T07:58:52.923Z,1005.64
2019-04-30T07:59:52.945Z,1005.65
2019-04-30T08:00:56.297Z,1005.67
2019-04-30T08:02:04.006Z,1005.66
2019-04-30T08:02:53.880Z,1005.66
2019-04-30T08:03:53.164Z,1005.65
2019-04-30T08:04:52.856Z,1005.61
2019-04-30T08:05:52.930Z,1005.60
2019-04-30T08:06:52.871Z,1005.60
2019-04-30T08:07:52.886Z,1005.61
2019-04-30T08:08:57.301Z,1005.58
2019-04-30T08:09:34.156Z,1005.56
2019-04-30T08:09:36.932Z,1005.53
2019-04-30T08:09:53.799Z,1005.55
2019-04-30T08:10:52.821Z,1005.56
2019-04-30T08:11:52.778Z,1005.59
2019-04-30T08:12:53.053Z,1005.58
2019-04-30T08:13:52.853Z,1005.62
2019-04-30T08:14:52.750Z,1005.66
2019-04-30T08:15:52.735Z,1005.64
2019-04-30T08:16:52.753Z,1005.68
2019-04-30T08:18:02.814Z,1005.64
2019-04-30T08:18:53.702Z,1005.69
2019-04-30T08:19:52.693Z,1005.64
2019-04-30T08:20:52.678Z,1005.62
2019-04-30T08:21:52.668Z,1005.64
2019-04-30T08:22:52.689Z,1005.64
2019-04-30T08:23:52.649Z,1005.63
2019-04-30T08:24:52.636Z,1005.58
2019-04-30T08:25:52.626Z,1005.65
2019-04-30T08:26:52.614Z,1005.55
2019-04-30T08:27:52.605Z,1005.59
2019-04-30T08:28:52.610Z,1005.60
2019-04-30T08:29:52.586Z,1005.58
2019-04-30T08:30:52.570Z,1005.61
2019-04-30T08:31:52.573Z,1005.60
2019-04-30T08:32:52.547Z,1005.61
2019-04-30T08:33:52.570Z,1005.60
2019-04-30T08:34:52.533Z,1005.60
2019-04-30T08:35:52.514Z,1005.56
2019-04-30T08:36:53.318Z,1005.57
2019-04-30T08:37:52.492Z,1005.52
2019-04-30T08:38:52.483Z,1005.52
2019-04-30T08:39:52.498Z,1005.50
2019-04-30T08:40:56.102Z,1005.46
2019-04-30T08:41:53.451Z,1005.49
2019-04-30T08:42:52.435Z,1005.45
2019-04-30T08:43:52.422Z,1005.47
2019-04-30T08:44:52.413Z,1005.47
2019-04-30T08:45:52.417Z,1005.49
2019-04-30T08:46:52.391Z,1005.47
2019-04-30T08:47:52.380Z,1005.49
2019-04-30T08:48:53.821Z,1005.53
2019-04-30T08:49:52.357Z,1005.49
2019-04-30T08:50:52.372Z,1005.52
2019-04-30T08:51:52.345Z,1005.51
2019-04-30T08:52:52.326Z,1005.51
2019-04-30T08:53:52.312Z,1005.51
2019-04-30T08:54:52.308Z,1005.53
2019-04-30T08:55:52.290Z,1005.49
2019-04-30T08:56:52.310Z,1005.50
2019-04-30T08:57:52.267Z,1005.52
2019-04-30T08:58:54.789Z,1005.54
2019-04-30T08:59:52.247Z,1005.54
2019-04-30T09:00:52.235Z,1005.52
2019-04-30T09:01:52.224Z,1005.52
2019-04-30T09:02:52.240Z,1005.56
2019-04-30T09:03:52.200Z,1005.56
2019-04-30T09:04:52.194Z,1005.57
2019-04-30T09:05:52.181Z,1005.57
2019-04-30T09:06:52.169Z,1005.54
2019-04-30T09:07:52.160Z,1005.58
2019-04-30T09:08:52.162Z,1005.55
2019-04-30T09:09:52.135Z,1005.55
2019-04-30T09:10:52.124Z,1005.55
2019-04-30T09:11:55.669Z,1005.54
2019-04-30T09:12:52.138Z,1005.53
2019-04-30T09:13:52.122Z,1005.55
2019-04-30T09:14:52.080Z,1005.52
2019-04-30T09:15:52.069Z,1005.50
2019-04-30T09:16:52.079Z,1005.53
2019-04-30T09:18:00.807Z,1005.55
2019-04-30T09:18:53.063Z,1005.46
2019-04-30T09:19:52.024Z,1005.48
2019-04-30T09:20:52.011Z,1005.48
2019-04-30T09:21:52.001Z,1005.52
2019-04-30T09:22:51.989Z,1005.57
2019-04-30T09:23:52.768Z,1005.55
2019-04-30T09:24:51.994Z,1005.53
2019-04-30T09:25:51.958Z,1005.52
2019-04-30T09:26:51.946Z,1005.45
2019-04-30T09:27:51.933Z,1005.48
2019-04-30T09:28:51.921Z,1005.46
2019-04-30T09:29:51.909Z,1005.50
2019-04-30T09:30:51.928Z,1005.47
2019-04-30T09:31:51.887Z,1005.54
2019-04-30T09:32:51.876Z,1005.46
2019-04-30T09:33:51.868Z,1005.51
2019-04-30T09:34:51.854Z,1005.45
2019-04-30T09:35:51.844Z,1005.50
2019-04-30T09:36:51.848Z,1005.44
2019-04-30T09:37:59.023Z,1005.49
2019-04-30T09:38:52.808Z,1005.47
2019-04-30T09:39:51.800Z,1005.46
2019-04-30T09:40:51.789Z,1005.46
2019-04-30T09:41:51.792Z,1005.46
2019-04-30T09:42:51.766Z,1005.43
2019-04-30T09:43:51.753Z,1005.39
2019-04-30T09:44:54.252Z,1005.41
2019-04-30T09:45:51.733Z,1005.43
2019-04-30T09:46:51.746Z,1005.44
2019-04-30T09:47:51.708Z,1005.39
2019-04-30T09:48:51.702Z,1005.44
2019-04-30T09:49:51.685Z,1005.44
2019-04-30T09:50:51.875Z,1005.39
2019-04-30T09:51:51.958Z,1005.42
2019-04-30T09:52:51.898Z,1005.37
2019-04-30T09:53:58.592Z,1005.43
2019-04-30T09:54:52.829Z,1005.40
2019-04-30T09:55:51.629Z,1005.48
2019-04-30T09:56:52.777Z,1005.44
2019-04-30T09:57:51.594Z,1005.42
2019-04-30T09:58:51.600Z,1005.39
2019-04-30T09:59:51.572Z,1005.40
2019-04-30T10:00:51.562Z,1005.38
2019-04-30T10:01:51.550Z,1005.39
2019-04-30T10:02:51.539Z,1005.40
2019-04-30T10:03:52.029Z,1005.35
2019-04-30T10:04:51.851Z,1005.34
2019-04-30T10:05:51.509Z,1005.36
2019-04-30T10:06:51.502Z,1005.39
2019-04-30T10:07:51.488Z,1005.42
2019-04-30T10:08:51.485Z,1005.41
2019-04-30T10:09:51.493Z,1005.35
2019-04-30T10:10:51.452Z,1005.41
2019-04-30T10:11:51.439Z,1005.35
2019-04-30T10:12:51.432Z,1005.36
2019-04-30T10:13:51.419Z,1005.38
2019-04-30T10:14:51.431Z,1005.36
2019-04-30T10:15:51.425Z,1005.34
2019-04-30T10:16:51.387Z,1005.30
2019-04-30T10:17:51.376Z,1005.34
2019-04-30T10:18:51.363Z,1005.29
2019-04-30T10:19:51.353Z,1005.29
2019-04-30T10:20:51.341Z,1005.34
2019-04-30T10:21:51.348Z,1005.29
2019-04-30T10:22:51.321Z,1005.24
2019-04-30T10:23:51.311Z,1005.31
2019-04-30T10:24:51.299Z,1005.34
2019-04-30T10:25:51.292Z,1005.37
2019-04-30T10:26:51.307Z,1005.38
2019-04-30T10:27:51.278Z,1005.32
2019-04-30T10:28:51.258Z,1005.30
2019-04-30T10:29:51.245Z,1005.28
2019-04-30T10:30:51.233Z,1005.26
2019-04-30T10:31:51.225Z,1005.26
2019-04-30T10:32:51.657Z,1005.29
2019-04-30T10:33:51.204Z,1005.29
2019-04-30T10:34:51.195Z,1005.29
2019-04-30T10:35:51.181Z,1005.25
2019-04-30T10:36:51.177Z,1005.18
2019-04-30T10:37:51.159Z,1005.13
2019-04-30T10:38:51.180Z,1005.18
2019-04-30T10:39:51.163Z,1005.16
2019-04-30T10:40:51.128Z,1005.18
2019-04-30T10:41:51.119Z,1005.18
2019-04-30T10:42:51.118Z,1005.26
2019-04-30T10:43:51.122Z,1005.21
2019-04-30T10:44:51.084Z,1005.27
2019-04-30T10:45:51.072Z,1005.28
2019-04-30T10:46:51.063Z,1005.19
2019-04-30T10:47:51.052Z,1005.23
2019-04-30T10:48:51.041Z,1005.16
2019-04-30T10:49:51.057Z,1005.23
2019-04-30T10:50:51.018Z,1005.29
2019-04-30T10:51:51.007Z,1005.28
2019-04-30T10:52:50.998Z,1005.31
2019-04-30T10:53:50.999Z,1005.34
2019-04-30T10:54:50.975Z,1005.33
2019-04-30T10:55:50.994Z,1005.27
2019-04-30T10:56:51.357Z,1005.31
2019-04-30T10:57:50.944Z,1005.33
2019-04-30T10:58:50.963Z,1005.35
2019-04-30T10:59:50.921Z,1005.35
2019-04-30T11:00:50.935Z,1005.41
2019-04-30T11:01:50.920Z,1005.40
2019-04-30T11:02:50.891Z,1005.42
2019-04-30T11:03:50.883Z,1005.46
2019-04-30T11:04:50.870Z,1005.46
2019-04-30T11:05:50.908Z,1005.47
2019-04-30T11:06:50.882Z,1005.51
2019-04-30T11:07:50.839Z,1005.45
2019-04-30T11:08:50.829Z,1005.44
2019-04-30T11:09:50.817Z,1005.40
2019-04-30T11:10:50.809Z,1005.43
2019-04-30T11:11:50.798Z,1005.51
2019-04-30T11:12:50.806Z,1005.44
2019-04-30T11:13:50.779Z,1005.47
2019-04-30T11:14:50.765Z,1005.45
2019-04-30T11:15:50.784Z,1005.49
2019-04-30T11:16:51.592Z,1005.51
2019-04-30T11:17:50.873Z,1005.51
2019-04-30T11:18:50.928Z,1005.45
2019-04-30T11:19:50.991Z,1005.47
2019-04-30T11:20:50.911Z,1005.36
2019-04-30T11:21:50.896Z,1005.47
2019-04-30T11:22:50.830Z,1005.50
2019-04-30T11:23:50.931Z,1005.51
2019-04-30T11:24:58.416Z,1005.48
2019-04-30T11:25:52.299Z,1005.50
2019-04-30T11:26:51.480Z,1005.47
2019-04-30T11:27:51.425Z,1005.49
2019-04-30T11:28:50.775Z,1005.50
2019-04-30T11:29:50.839Z,1005.45
2019-04-30T11:30:50.820Z,1005.39
2019-04-30T11:31:50.811Z,1005.41
2019-04-30T11:32:50.738Z,1005.30
2019-04-30T11:33:50.828Z,1005.38
2019-04-30T11:34:50.561Z,1005.36
2019-04-30T11:36:02.098Z,1005.35
2019-04-30T11:36:51.566Z,1005.37
2019-04-30T11:37:50.528Z,1005.35
2019-04-30T11:38:50.517Z,1005.34
2019-04-30T11:39:50.507Z,1005.31
2019-04-30T11:40:50.499Z,1005.29
2019-04-30T11:41:50.486Z,1005.23
2019-04-30T11:42:50.494Z,1005.19
2019-04-30T11:43:50.466Z,1005.18
2019-04-30T11:44:50.454Z,1005.13
2019-04-30T11:45:50.445Z,1005.04
2019-04-30T11:46:50.433Z,1004.91
2019-04-30T11:47:53.550Z,1004.84
2019-04-30T11:48:50.425Z,1004.86
2019-04-30T11:49:50.403Z,1004.84
2019-04-30T11:50:50.394Z,1004.92
2019-04-30T11:51:50.384Z,1004.85
2019-04-30T11:52:50.390Z,1004.87
2019-04-30T11:53:50.362Z,1004.85
2019-04-30T11:54:54.172Z,1004.92
2019-04-30T11:55:50.343Z,1004.90
2019-04-30T11:56:50.552Z,1004.89
2019-04-30T11:57:50.334Z,1004.85
2019-04-30T11:58:50.310Z,1004.80
2019-04-30T11:59:50.298Z,1004.77
2019-04-30T12:00:50.291Z,1004.81
2019-04-30T12:01:50.275Z,1004.76
2019-04-30T12:02:52.782Z,1004.75
2019-04-30T12:03:50.254Z,1004.71
2019-04-30T12:04:50.245Z,1004.74
2019-04-30T12:05:50.233Z,1004.70